createdAt,value
2023-03-02T00:00:16.626Z,83.88
2023-03-02T00:03:18.399Z,84.21
2023-03-02T00:06:20.256Z,84.20
2023-03-02T00:09:21.939Z,84.39
2023-03-02T00:12:24.283Z,84.55
2023-03-02T00:15:26.792Z,84.61
2023-03-02T00:18:28.371Z,84.14
2023-03-02T00:21:30.210Z,84.50
2023-03-02T00:24:32.082Z,84.46
2023-03-02T00:27:33.748Z,84.89
2023-03-02T00:30:38.257Z,85.68
2023-03-02T00:33:41.023Z,85.35
2023-03-02T00:36:43.465Z,85.07
2023-03-02T00:39:45.462Z,85.08
2023-03-02T00:42:47.059Z,85.00
2023-03-02T00:45:48.780Z,85.53
2023-03-02T00:48:51.811Z,85.45
2023-03-02T00:51:53.439Z,85.07
2023-03-02T00:54:55.107Z,85.67
2023-03-02T00:57:57.128Z,85.28
2023-03-02T01:01:11.305Z,85.06
2023-03-02T01:04:18.647Z,84.94
2023-03-02T01:07:22.640Z,85.31
2023-03-02T01:10:24.389Z,85.44
2023-03-02T01:13:26.080Z,85.37
2023-03-02T01:16:27.944Z,85.69
2023-03-02T01:19:30.946Z,85.31
2023-03-02T01:22:32.656Z,85.68
2023-03-02T01:25:36.579Z,85.38
2023-03-02T01:28:40.349Z,85.25
2023-03-02T01:31:42.530Z,85.79
2023-03-02T01:34:44.419Z,86.22
2023-03-02T01:37:46.085Z,86.52
2023-03-02T01:40:47.884Z,85.88
2023-03-02T01:43:49.519Z,86.71
2023-03-02T01:46:51.299Z,86.35
2023-03-02T01:50:01.636Z,86.91
2023-03-02T01:53:11.670Z,86.12
2023-03-02T01:56:19.814Z,86.77
2023-03-02T01:59:23.820Z,86.68
2023-03-02T02:02:26.522Z,86.72
2023-03-02T02:05:28.252Z,86.95
2023-03-02T02:08:30.528Z,87.49
2023-03-02T02:11:32.203Z,87.36
2023-03-02T02:14:33.962Z,87.48
2023-03-02T02:17:35.806Z,87.42
2023-03-02T02:20:41.057Z,87.72
2023-03-02T02:24:01.904Z,87.63
2023-03-02T02:27:03.839Z,87.50
2023-03-02T02:30:07.966Z,87.71
2023-03-02T02:33:16.882Z,87.33
2023-03-02T02:36:25.614Z,87.05
2023-03-02T02:39:34.226Z,87.19
2023-03-02T02:42:43.442Z,87.13
2023-03-02T02:45:48.471Z,87.23
2023-03-02T02:48:50.324Z,87.82
2023-03-02T02:51:52.730Z,87.28
2023-03-02T02:54:57.886Z,87.68
2023-03-02T02:58:02.837Z,87.69
2023-03-02T03:01:07.094Z,87.75
2023-03-02T03:04:14.178Z,87.77
2023-03-02T03:07:25.552Z,87.86
2023-03-02T03:10:37.431Z,87.40
2023-03-02T03:13:41.077Z,88.08
2023-03-02T03:16:45.343Z,88.13
2023-03-02T03:19:47.702Z,88.54
2023-03-02T03:22:53.454Z,88.42
2023-03-02T03:25:55.857Z,89.18
2023-03-02T03:28:57.552Z,89.15
2023-03-02T03:32:01.345Z,89.04
2023-03-02T03:35:08.523Z,89.17
2023-03-02T03:38:12.128Z,89.08
2023-03-02T03:41:13.890Z,89.54
2023-03-02T03:44:15.716Z,89.57
2023-03-02T03:47:19.129Z,89.59
2023-03-02T03:50:21.519Z,89.76
2023-03-02T03:53:23.453Z,89.42
2023-03-02T03:56:30.740Z,89.34
2023-03-02T03:59:34.107Z,89.57
2023-03-02T04:02:38.498Z,89.17
2023-03-02T04:05:40.583Z,89.12
2023-03-02T04:08:43.661Z,88.65
2023-03-02T04:11:47.882Z,88.82
2023-03-02T04:14:50.007Z,89.04
2023-03-02T04:17:51.792Z,88.81
2023-03-02T04:20:55.170Z,89.19
2023-03-02T04:23:56.874Z,88.86
2023-03-02T04:26:58.896Z,89.06
2023-03-02T04:30:01.427Z,89.03
2023-03-02T04:33:04.949Z,89.19
2023-03-02T04:36:10.160Z,88.87
2023-03-02T04:39:14.793Z,89.11
2023-03-02T04:42:20.946Z,89.47
2023-03-02T04:45:22.596Z,89.89
2023-03-02T04:48:24.676Z,90.46
2023-03-02T04:51:30.312Z,90.19
2023-03-02T04:54:32.205Z,90.62
2023-03-02T04:57:33.853Z,91.03
2023-03-02T05:00:36.100Z,90.87
2023-03-02T05:03:37.888Z,91.56
2023-03-02T05:06:41.015Z,91.37
2023-03-02T05:09:42.680Z,91.13
2023-03-02T05:13:02.601Z,90.86
2023-03-02T05:16:04.640Z,91.04
2023-03-02T05:19:09.306Z,91.38
2023-03-02T05:22:11.528Z,90.81
2023-03-02T05:25:14.534Z,91.15
2023-03-02T05:28:18.991Z,90.75
2023-03-02T05:31:41.231Z,91.20
2023-03-02T05:34:43.404Z,90.07
2023-03-02T05:37:45.586Z,90.31
2023-03-02T05:40:48.565Z,90.27
2023-03-02T05:43:50.701Z,90.40
2023-03-02T05:46:52.827Z,90.34
2023-03-02T05:49:54.639Z,90.32
2023-03-02T05:52:56.487Z,90.68
2023-03-02T05:55:58.239Z,90.13
2023-03-02T05:59:00.266Z,90.26
2023-03-02T06:02:03.191Z,90.08
2023-03-02T06:05:09.310Z,89.93
2023-03-02T06:08:12.138Z,90.46
2023-03-02T06:11:16.116Z,90.01
2023-03-02T06:14:19.230Z,90.51
2023-03-02T06:17:20.934Z,90.11
2023-03-02T06:20:22.797Z,90.54
2023-03-02T06:23:25.142Z,91.17
2023-03-02T06:26:26.754Z,91.04
2023-03-02T06:29:28.322Z,92.11
2023-03-02T06:32:34.226Z,91.39
2023-03-02T06:35:36.063Z,92.08
2023-03-02T06:38:40.561Z,92.58
2023-03-02T06:41:44.923Z,92.48
2023-03-02T06:44:48.568Z,92.92
2023-03-02T06:47:50.167Z,92.95
2023-03-02T06:50:51.776Z,92.41
2023-03-02T06:53:53.675Z,93.04
2023-03-02T06:56:57.798Z,92.78
2023-03-02T07:00:01.405Z,93.61
2023-03-02T07:03:03.912Z,93.44
2023-03-02T07:06:06.272Z,93.14
2023-03-02T07:09:08.628Z,93.81
2023-03-02T07:12:11.568Z,93.52
2023-03-02T07:15:16.243Z,93.48
2023-03-02T07:18:18.989Z,93.47
2023-03-02T07:21:23.368Z,93.00
2023-03-02T07:24:25.623Z,93.24
2023-03-02T07:27:27.706Z,93.23
2023-03-02T07:30:29.828Z,92.87
2023-03-02T07:33:32.162Z,93.08
2023-03-02T07:36:34.248Z,93.19
2023-03-02T07:39:35.866Z,93.28
2023-03-02T07:42:38.701Z,92.43
2023-03-02T07:45:43.933Z,92.66
2023-03-02T07:48:45.556Z,93.01
2023-03-02T07:51:49.161Z,93.15
2023-03-02T07:54:50.970Z,93.35
2023-03-02T07:57:53.183Z,93.00
2023-03-02T08:00:54.787Z,93.48
2023-03-02T08:03:56.882Z,93.32
2023-03-02T08:06:59.035Z,93.31
2023-03-02T08:10:01.372Z,93.47
2023-03-02T08:13:03.743Z,93.59
2023-03-02T08:16:08.740Z,93.02
2023-03-02T08:19:10.795Z,93.26
2023-03-02T08:22:13.070Z,93.18
2023-03-02T08:25:17.246Z,92.58
2023-03-02T08:28:20.141Z,92.12
2023-03-02T08:31:22.330Z,91.72
2023-03-02T08:34:26.343Z,92.25
2023-03-02T08:37:28.644Z,91.73
2023-03-02T08:40:30.245Z,91.39
2023-03-02T08:43:32.386Z,91.65
2023-03-02T08:46:34.592Z,91.44
2023-03-02T08:49:37.943Z,91.33
2023-03-02T08:52:40.213Z,91.43
2023-03-02T08:55:41.831Z,91.15
2023-03-02T08:58:46.388Z,90.69
2023-03-02T09:01:48.213Z,90.19
2023-03-02T09:04:50.394Z,89.76
2023-03-02T09:07:52.466Z,90.63
2023-03-02T09:10:54.520Z,90.07
2023-03-02T09:13:56.331Z,89.63
2023-03-02T09:16:59.045Z,89.18
2023-03-02T09:20:01.250Z,88.93
2023-03-02T09:23:02.842Z,89.08
2023-03-02T09:26:06.132Z,89.09
2023-03-02T09:29:08.416Z,88.24
2023-03-02T09:32:11.791Z,88.19
2023-03-02T09:35:15.588Z,88.49
2023-03-02T09:38:18.714Z,88.47
2023-03-02T09:42:07.891Z,87.83
2023-03-02T09:45:22.238Z,87.30
2023-03-02T09:48:44.290Z,87.34
2023-03-02T09:51:48.663Z,86.85
2023-03-02T09:54:50.838Z,87.40
2023-03-02T09:57:54.909Z,86.51
2023-03-02T10:00:59.198Z,86.93
2023-03-02T10:04:13.559Z,86.77
2023-03-02T10:07:35.673Z,86.42
2023-03-02T10:10:54.755Z,85.90
2023-03-02T10:14:33.793Z,85.76
2023-03-02T10:18:01.454Z,85.52
2023-03-02T10:21:05.725Z,85.02
2023-03-02T10:24:41.308Z,84.99
2023-03-02T10:27:52.372Z,85.13
2023-03-02T10:31:08.263Z,85.07
2023-03-02T10:34:14.919Z,84.53
2023-03-02T10:37:28.481Z,83.51
2023-03-02T10:40:49.769Z,83.43
2023-03-02T10:43:57.559Z,83.33
2023-03-02T10:46:59.592Z,82.68
2023-03-02T10:50:01.247Z,82.00
2023-03-02T10:53:06.738Z,81.91
2023-03-02T10:56:22.380Z,82.04
2023-03-02T10:59:45.852Z,81.44
2023-03-02T11:03:02.591Z,82.02
2023-03-02T11:06:21.455Z,82.27
2023-03-02T11:09:23.497Z,82.12
2023-03-02T11:12:26.119Z,81.48
2023-03-02T11:15:46.030Z,81.09
2023-03-02T11:19:10.369Z,80.52
2023-03-02T11:22:44.065Z,80.00
2023-03-02T11:25:57.336Z,80.29
2023-03-02T11:29:04.608Z,79.34
2023-03-02T11:32:20.296Z,79.45
2023-03-02T11:35:45.357Z,79.67
2023-03-02T11:38:51.314Z,79.18
2023-03-02T11:41:54.650Z,78.51
2023-03-02T11:45:18.870Z,78.69
2023-03-02T11:48:33.443Z,77.68
2023-03-02T11:51:50.020Z,77.53
2023-03-02T11:55:15.423Z,78.17
2023-03-02T11:58:21.181Z,77.85
2023-03-02T12:01:26.843Z,77.50
2023-03-02T12:04:32.577Z,76.88
2023-03-02T12:07:34.343Z,76.46
2023-03-02T12:10:42.601Z,76.83
2023-03-02T12:14:04.091Z,76.34
2023-03-02T12:17:26.363Z,75.00
2023-03-02T12:20:30.878Z,75.22
2023-03-02T12:24:04.007Z,75.41
2023-03-02T12:27:21.399Z,75.63
2023-03-02T12:30:28.681Z,74.88
2023-03-02T12:33:30.444Z,74.82
2023-03-02T12:36:41.441Z,74.20
2023-03-02T12:40:03.105Z,73.61
2023-03-02T12:43:20.660Z,72.95
2023-03-02T12:46:34.049Z,73.09
2023-03-02T12:49:58.628Z,72.64
2023-03-02T12:53:02.816Z,73.31
2023-03-02T12:56:04.825Z,73.00
2023-03-02T12:59:06.775Z,72.65
2023-03-02T13:02:21.739Z,72.12
2023-03-02T13:05:35.464Z,71.53
2023-03-02T13:08:37.694Z,71.33
2023-03-02T13:11:39.975Z,70.75
2023-03-02T13:14:46.177Z,70.87
2023-03-02T13:18:00.533Z,70.82
2023-03-02T13:21:04.805Z,70.57
2023-03-02T13:24:33.715Z,70.27
2023-03-02T13:27:35.460Z,69.29
2023-03-02T13:30:43.566Z,69.36
2023-03-02T13:33:47.430Z,70.40
2023-03-02T13:36:52.164Z,69.44
2023-03-02T13:39:59.764Z,69.34
2023-03-02T13:43:01.483Z,69.86
2023-03-02T13:46:16.055Z,68.99
2023-03-02T13:49:35.760Z,70.43
2023-03-02T13:52:37.450Z,70.23
2023-03-02T13:55:40.124Z,70.55
2023-03-02T13:58:41.847Z,69.72
2023-03-02T14:01:47.690Z,70.56
2023-03-02T14:04:49.474Z,70.29
2023-03-02T14:07:51.686Z,70.46
2023-03-02T14:10:59.637Z,70.45
2023-03-02T14:14:03.242Z,70.80
2023-03-02T14:17:16.564Z,70.81
2023-03-02T14:20:22.924Z,70.82
2023-03-02T14:23:26.316Z,70.84
2023-03-02T14:26:38.003Z,70.76
2023-03-02T14:29:39.665Z,70.89
2023-03-02T14:32:41.316Z,70.68
2023-03-02T14:35:44.097Z,70.91
2023-03-02T14:38:48.042Z,70.67
2023-03-02T14:41:54.486Z,70.96
2023-03-02T14:44:56.500Z,70.98
2023-03-02T14:47:58.089Z,71.30
2023-03-02T14:51:01.243Z,70.65
2023-03-02T14:54:07.444Z,70.71
2023-03-02T14:57:28.040Z,70.83
2023-03-02T15:00:31.608Z,71.39
2023-03-02T15:03:33.330Z,71.33
2023-03-02T15:06:38.661Z,70.17
2023-03-02T15:09:40.316Z,70.16
2023-03-02T15:12:41.994Z,70.27
2023-03-02T15:15:44.715Z,68.98
2023-03-02T15:18:49.903Z,68.50
2023-03-02T15:21:52.958Z,68.05
2023-03-02T15:24:55.575Z,67.08
2023-03-02T15:27:57.950Z,66.46
2023-03-02T15:31:10.083Z,65.79
2023-03-02T15:34:12.610Z,64.75
2023-03-02T15:37:14.852Z,64.56
2023-03-02T15:40:19.031Z,63.79
2023-03-02T15:43:20.996Z,63.92
2023-03-02T15:46:23.902Z,63.13
2023-03-02T15:49:28.564Z,64.25
2023-03-02T15:52:31.440Z,64.01
2023-03-02T15:55:33.169Z,64.29
2023-03-02T15:58:35.841Z,64.74
2023-03-02T16:01:37.496Z,64.93
2023-03-02T16:04:39.256Z,65.59
2023-03-02T16:07:41.128Z,65.59
2023-03-02T16:10:42.996Z,65.70
2023-03-02T16:13:44.612Z,66.47
2023-03-02T16:16:46.410Z,67.08
2023-03-02T16:19:48.547Z,68.02
2023-03-02T16:22:51.792Z,67.93
2023-03-02T16:25:56.231Z,68.60
2023-03-02T16:29:00.348Z,68.86
2023-03-02T16:32:02.224Z,69.52
2023-03-02T16:35:04.284Z,69.96
2023-03-02T16:38:06.444Z,70.13
2023-03-02T16:41:16.793Z,70.96
2023-03-02T16:44:19.316Z,71.33
2023-03-02T16:47:22.489Z,71.63
2023-03-02T16:50:25.056Z,72.38
2023-03-02T16:53:28.136Z,72.68
2023-03-02T16:56:30.251Z,72.44
2023-03-02T16:59:33.092Z,73.14
2023-03-02T17:02:35.160Z,73.12
2023-03-02T17:05:37.805Z,73.46
2023-03-02T17:08:39.605Z,74.35
2023-03-02T17:11:41.229Z,74.30
2023-03-02T17:14:42.836Z,75.00
2023-03-02T17:17:44.434Z,74.82
2023-03-02T17:20:46.457Z,75.35
2023-03-02T17:23:50.893Z,75.89
2023-03-02T17:26:56.564Z,76.04
2023-03-02T17:29:59.337Z,76.76
2023-03-02T17:33:01.644Z,76.79
2023-03-02T17:36:07.409Z,76.95
2023-03-02T17:39:09.344Z,77.50
2023-03-02T17:42:11.077Z,77.37
2023-03-02T17:45:27.273Z,77.78
2023-03-02T17:48:28.850Z,77.74
2023-03-02T17:51:30.608Z,77.66
2023-03-02T17:54:32.759Z,78.10
2023-03-02T17:57:34.519Z,78.06
2023-03-02T18:00:36.317Z,78.22
2023-03-02T18:03:38.913Z,78.93
2023-03-02T18:06:40.846Z,78.81
2023-03-02T18:09:42.847Z,78.76
2023-03-02T18:12:44.397Z,79.08
2023-03-02T18:15:46.055Z,79.36
2023-03-02T18:18:48.484Z,79.17
2023-03-02T18:21:50.094Z,80.28
2023-03-02T18:24:53.033Z,80.33
2023-03-02T18:27:55.214Z,80.15
2023-03-02T18:30:58.537Z,80.87
2023-03-02T18:34:02.514Z,80.82
2023-03-02T18:37:05.403Z,80.81
2023-03-02T18:40:07.952Z,81.26
2023-03-02T18:43:09.636Z,81.43
2023-03-02T18:46:20.878Z,81.25
2023-03-02T18:49:24.084Z,81.37
2023-03-02T18:52:26.500Z,82.21
2023-03-02T18:55:28.191Z,82.10
2023-03-02T18:58:34.053Z,82.61
2023-03-02T19:01:35.743Z,82.03
2023-03-02T19:04:37.672Z,82.15
2023-03-02T19:07:39.506Z,82.17
2023-03-02T19:10:42.357Z,82.62
2023-03-02T19:13:44.064Z,82.45
2023-03-02T19:16:46.328Z,82.96
2023-03-02T19:19:47.986Z,83.44
2023-03-02T19:22:49.791Z,83.54
2023-03-02T19:25:53.900Z,83.46
2023-03-02T19:28:55.630Z,83.73
2023-03-02T19:31:58.321Z,83.71
2023-03-02T19:35:04.169Z,83.43
2023-03-02T19:38:07.280Z,84.37
2023-03-02T19:41:12.631Z,84.33
2023-03-02T19:44:14.329Z,84.26
2023-03-02T19:47:16.066Z,84.75
2023-03-02T19:50:18.906Z,84.17
2023-03-02T19:53:22.792Z,85.08
2023-03-02T19:56:33.100Z,85.28
2023-03-02T19:59:36.592Z,85.24
2023-03-02T20:02:40.749Z,85.06
2023-03-02T20:05:42.435Z,85.05
2023-03-02T20:08:44.480Z,85.74
2023-03-02T20:11:47.574Z,85.58
2023-03-02T20:14:53.714Z,85.76
2023-03-02T20:17:58.471Z,85.49
2023-03-02T20:21:02.156Z,85.84
2023-03-02T20:24:05.036Z,86.21
2023-03-02T20:27:07.330Z,86.01
2023-03-02T20:30:13.764Z,86.36
2023-03-02T20:33:16.273Z,86.21
2023-03-02T20:36:30.527Z,86.54
2023-03-02T20:39:35.637Z,86.46
2023-03-02T20:42:37.552Z,86.19
2023-03-02T20:45:39.893Z,86.98
2023-03-02T20:48:41.540Z,86.95
2023-03-02T20:51:49.422Z,87.24
2023-03-02T20:54:53.807Z,87.10
2023-03-02T20:58:10.671Z,87.09
2023-03-02T21:01:17.424Z,86.57
2023-03-02T21:04:20.791Z,86.82
2023-03-02T21:07:24.217Z,87.38
2023-03-02T21:10:32.823Z,87.09
2023-03-02T21:13:34.471Z,87.42
2023-03-02T21:16:38.905Z,87.47
2023-03-02T21:19:40.521Z,87.24
2023-03-02T21:22:42.437Z,87.86
2023-03-02T21:25:44.835Z,87.88
2023-03-02T21:28:46.556Z,87.66
2023-03-02T21:31:48.505Z,88.39
2023-03-02T21:34:52.609Z,88.25
2023-03-02T21:37:58.388Z,87.95
2023-03-02T21:41:01.161Z,88.46
2023-03-02T21:44:05.513Z,88.28
2023-03-02T21:47:07.245Z,88.84
2023-03-02T21:50:13.114Z,88.26
2023-03-02T21:53:14.761Z,88.85
2023-03-02T21:56:20.748Z,88.86
2023-03-02T21:59:26.084Z,88.36
2023-03-02T22:02:28.234Z,88.88
2023-03-02T22:05:32.139Z,88.71
2023-03-02T22:08:35.431Z,88.72
2023-03-02T22:11:38.411Z,89.19
2023-03-02T22:14:40.064Z,89.02
2023-03-02T22:17:42.380Z,89.06
2023-03-02T22:20:47.188Z,88.89
2023-03-02T22:23:48.986Z,89.34
2023-03-02T22:26:57.189Z,89.78
2023-03-02T22:30:02.782Z,89.86
2023-03-02T22:33:15.048Z,89.74
2023-03-02T22:36:23.937Z,90.01
2023-03-02T22:39:30.773Z,90.45
2023-03-02T22:42:34.051Z,90.47
2023-03-02T22:45:38.283Z,90.53
2023-03-02T22:48:41.790Z,90.87
2023-03-02T22:51:44.568Z,90.39
2023-03-02T22:54:46.466Z,90.32
2023-03-02T22:57:48.094Z,90.27
2023-03-02T23:00:49.793Z,90.91
2023-03-02T23:03:54.391Z,90.40
2023-03-02T23:07:01.135Z,90.90
2023-03-02T23:10:03.548Z,90.83
2023-03-02T23:13:05.173Z,90.55
2023-03-02T23:16:18.193Z,91.21
2023-03-02T23:19:20.444Z,91.18
2023-03-02T23:22:23.159Z,91.29
2023-03-02T23:25:26.068Z,91.20
2023-03-02T23:28:27.654Z,91.13
2023-03-02T23:31:31.317Z,91.19
2023-03-02T23:34:32.978Z,91.16
2023-03-02T23:37:34.634Z,91.43
2023-03-02T23:40:36.230Z,91.75
2023-03-02T23:43:38.143Z,91.53
2023-03-02T23:46:39.914Z,91.89
2023-03-02T23:49:41.484Z,91.52
2023-03-02T23:52:43.271Z,91.64
2023-03-02T23:55:48.974Z,91.74
2023-03-02T23:58:50.676Z,91.99
